Latest Weather Observations for Applethorpe

IDQ60801

Issued at 8:02 pm EST Wednesday 24 August 2016 (issued every 30 minutes, with the page automatically refreshed every 10 minutes)

About weather observations | Map of weather stations | Latest weather observations for QLD | Other Formats
Station Details ID: 041175 Name: APPLETHORPE Lat: -28.62 Lon: 151.95 Height: 871.6 m
Data from the previous 72 hours. | See also: Recent months at Applethorpe
Date/Time
EST
Temp
°C
App
Temp
°C
Dew
Point
°C
Rel
Hum
%
Delta-T
°C
Wind Press
QNH
hPa
Press
MSL
hPa
Rain since
9am
mm
Dir  Spd
km/h
Gust
km/h
Spd
kts
Gust
kts
24/08:00pm 12.1 11.2 11.4 95 0.4 NNW 7 17 4 9 1008.1 1007.6 19.6
24/07:30pm 11.9 10.9 11.0 94 0.5 NNW 7 13 4 7 1008.9 1008.4 19.4
24/07:00pm 10.8 10.5 10.2 96 0.3 N 2 7 1 4 1009.1 1008.6 19.4
24/06:30pm 10.5 10.3 10.3 99 0.1 E 2 6 1 3 1008.4 1007.9 19.4
24/06:00pm 10.5 10.2 10.1 97 0.2 NE 2 4 1 2 1009.2 1008.7 19.4
24/05:30pm 10.5 9.2 10.1 97 0.2 NE 7 11 4 6 1007.5 1006.9 19.4
24/05:00pm 10.9 10.3 10.3 96 0.3 ENE 4 7 2 4 1008.2 1007.7 19.2
24/04:30pm 11.1 9.6 10.4 95 0.4 NE 9 17 5 9 1008.0 1007.5 19.2
24/04:00pm 11.1 9.2 10.5 96 0.3 NE 11 17 6 9 1007.6 1007.1 19.2
24/03:30pm 11.4 10.5 10.7 95 0.4 NE 6 11 3 6 1008.1 1007.6 19.0
24/03:00pm 11.4 10.5 10.7 95 0.4 NE 6 7 3 4 1008.8 1008.3 18.8
24/02:30pm 11.1 9.1 10.2 94 0.5 ENE 11 19 6 10 1008.6 1008.1 18.6
24/02:00pm 10.9 9.2 10.0 94 0.5 NE 9 19 5 10 1007.9 1007.4 18.2
24/01:52pm 10.9 9.3 10.3 96 0.3 NE 9 15 5 8 1007.6 1007.1 18.2
24/01:30pm 10.9 10.3 10.3 96 0.3 SSE 4 7 2 4 1009.6 1009.2 17.6
24/01:00pm 10.9 10.3 10.5 97 0.2 ENE 4 7 2 4 1009.9 1009.4 14.8
24/12:30pm 10.8 10.5 10.2 96 0.3 ESE 2 6 1 3 1010.2 1009.7 12.2
24/12:00pm 10.7 10.0 10.1 96 0.3 E 4 6 2 3 1010.2 1009.7 10.6
24/11:30am 10.4 9.1 9.8 96 0.3 ENE 7 15 4 8 1010.0 1009.5 8.2
24/11:00am 10.6 9.3 10.0 96 0.3 ENE 7 13 4 7 1010.2 1009.7 6.8
24/10:30am 10.5 9.2 9.9 96 0.3 E 7 13 4 7 1010.7 1010.3 5.2
24/10:00am 10.7 9.4 10.1 96 0.3 E 7 13 4 7 1010.6 1010.2 3.2
24/09:30am 11.0 10.3 9.9 93 0.6 ESE 4 7 2 4 1010.8 1010.4 0.6
24/09:00am 10.7 9.4 9.9 95 0.4 E 7 15 4 8 1011.2 1010.7 52.2
24/08:30am 10.5 8.8 9.9 96 0.3 ESE 9 20 5 11 1012.1 1011.7 50.8
24/08:00am 10.5 8.5 10.1 97 0.2 E 11 19 6 10 1011.5 1011.0 46.4
24/07:30am 10.6 9.6 10.2 97 0.2 ENE 6 9 3 5 1011.5 1011.0 41.4
24/07:00am 10.7 9.5 10.3 97 0.2 ENE 7 13 4 7 1011.3 1010.8 37.8
24/06:30am 10.8 9.3 10.4 97 0.2 ENE 9 19 5 10 1010.9 1010.5 35.6
24/06:00am 10.9 9.8 10.5 97 0.2 ENE 7 15 4 8 1010.6 1010.2 33.4
24/05:30am 10.9 9.4 10.5 97 0.2 ENE 9 17 5 9 1010.6 1010.2 30.8
24/05:00am 11.0 9.8 10.4 96 0.3 ENE 7 15 4 8 1010.5 1010.0 28.2
24/04:30am 11.0 9.9 10.6 97 0.2 ENE 7 11 4 6 1010.6 1010.2 24.0
24/04:00am 11.2 10.1 10.6 96 0.3 ENE 7 15 4 8 1010.5 1010.0 21.2
24/03:30am 11.6 10.6 11.1 97 0.3 E 7 13 4 7 1011.2 1010.7 17.2
24/03:00am 11.8 11.1 11.3 97 0.3 ENE 6 11 3 6 1011.1 1010.6 14.0
24/02:30am 11.7 11.0 11.3 97 0.2 ENE 6 9 3 5 1011.3 1010.8 12.4
24/02:00am 11.7 10.9 11.2 97 0.3 ENE 6 9 3 5 1012.3 1011.8 11.6
24/01:30am 11.5 10.5 11.0 97 0.3 NE 7 15 4 8 1012.1 1011.7 10.0
24/01:00am 11.4 10.5 10.8 96 0.3 ENE 6 9 3 5 1012.4 1011.9 9.0
24/12:30am 11.5 10.6 10.8 95 0.4 ENE 6 11 3 6 1012.7 1012.3 8.4
24/12:00am 11.5 10.7 11.0 97 0.3 ENE 6 11 3 6 1012.9 1012.5 8.2
 
Date/Time
EST
Temp
°C
App
Temp
°C
Dew
Point
°C
Rel
Hum
%
Delta-T
°C
Wind Press
QNH
hPa
Press
MSL
hPa
Rain since
9am
mm
Dir  Spd
km/h
Gust
km/h
Spd
kts
Gust
kts
23/11:30pm 11.8 11.1 11.3 97 0.3 ENE 6 13 3 7 1013.7 1013.3 8.0
23/11:00pm 11.8 11.5 11.4 97 0.2 E 4 6 2 3 1014.3 1013.9 7.2
23/10:30pm 11.7 11.4 11.3 97 0.2 SSW 4 7 2 4 1014.8 1014.4 6.4
23/10:00pm 12.1 12.2 11.6 97 0.3 S 2 6 1 3 1015.3 1014.9 4.4
23/09:30pm 12.0 12.0 11.1 94 0.5 SE 2 4 1 2 1015.2 1014.8 2.6
23/09:00pm 12.4 13.0 11.9 97 0.3 CALM 0 0 0 0 1015.1 1014.7 1.8
23/08:30pm 12.8 13.5 12.3 97 0.3 CALM 0 0 0 0 1015.8 1015.5 1.4
23/08:00pm 12.9 13.7 12.5 97 0.2 CALM 0 2 0 1 1015.7 1015.4 1.2
23/07:30pm 13.1 13.9 12.4 95 0.4 CALM 0 2 0 1 1015.3 1014.9 1.0
23/07:00pm 13.0 13.8 12.5 97 0.3 CALM 0 0 0 0 1015.0 1014.6 0.8
23/06:30pm 12.9 13.7 12.4 97 0.3 CALM 0 0 0 0 1014.9 1014.5 0.8
23/06:00pm 13.2 13.6 12.5 95 0.4 SW 2 4 1 2 1015.1 1014.7 0.8
23/05:30pm 13.7 13.7 12.5 92 0.7 SSW 4 6 2 3 1014.6 1014.3 0.8
23/05:00pm 14.1 14.7 13.2 94 0.5 WSW 2 4 1 2 1015.1 1014.7 0.8
23/04:30pm 14.4 14.9 12.8 90 0.9 W 2 6 1 3 1015.2 1014.8 0.6
23/04:00pm 15.1 15.0 12.1 82 1.7 W 4 6 2 3 1014.8 1014.4 0.4
23/03:30pm 16.0 15.3 11.4 74 2.6 WSW 6 11 3 6 1014.5 1014.2 0.2
23/03:00pm 16.5 15.4 10.8 69 3.2 W 7 13 4 7 1014.3 1013.9 0.2
23/02:30pm 17.4 15.4 10.2 62 4.0 WNW 11 22 6 12 1014.2 1013.8 0.2
23/02:00pm 16.8 15.4 10.9 68 3.3 WNW 9 17 5 9 1014.4 1014.0 0.2
23/01:30pm 16.1 14.3 10.7 70 3.0 W 11 19 6 10 1014.1 1013.7 0.2
23/01:00pm 15.9 14.7 11.5 75 2.5 W 9 15 5 8 1014.4 1014.0 0.2
23/12:30pm 15.7 14.0 11.2 74 2.5 WNW 11 20 6 11 1015.0 1014.6 0.2
23/12:00pm 15.2 13.6 11.5 78 2.1 WNW 11 22 6 12 1015.7 1015.4 0.2
23/11:30am 14.9 13.7 11.5 80 1.9 W 9 19 5 10 1016.0 1015.6 0.2
23/11:00am 14.3 12.4 11.8 85 1.4 W 13 19 7 10 1016.4 1016.0 0.2
23/10:30am 14.1 13.1 12.2 88 1.1 WNW 9 19 5 10 1016.6 1016.3 0.2
23/10:00am 13.5 12.1 12.1 91 0.8 W 11 20 6 11 1016.5 1016.2 0.2
23/09:30am 12.9 11.8 12.0 94 0.5 WNW 9 15 5 8 1016.4 1016.0 0.2
23/09:00am 12.5 11.7 11.8 95 0.4 WNW 7 15 4 8 1016.3 1015.9 15.0
23/08:30am 12.8 12.1 11.9 94 0.5 WNW 7 13 4 7 1016.1 1015.7 14.8
23/08:00am 12.6 12.0 11.7 94 0.5 WNW 6 13 3 7 1015.8 1015.5 14.8
23/07:30am 12.3 12.9 11.8 97 0.3 CALM 0 4 0 2 1015.1 1014.7 14.8
23/07:00am 11.9 12.4 11.5 97 0.2 CALM 0 0 0 0 1015.4 1015.0 14.6
23/06:30am 11.8 11.8 11.3 97 0.3 NNW 2 6 1 3 1015.4 1015.0 14.4
23/06:00am 11.8 11.8 11.3 97 0.3 NNW 2 7 1 4 1015.3 1014.9 14.2
23/05:30am 11.8 11.9 11.4 97 0.2 N 2 6 1 3 1015.0 1014.6 14.2
23/05:00am 11.9 12.0 11.4 97 0.3 NNW 2 6 1 3 1015.0 1014.6 13.4
23/04:30am 11.9 11.6 11.4 97 0.3 NNW 4 6 2 3 1015.1 1014.7 12.8
23/04:00am 11.8 11.8 11.3 97 0.3 NNW 2 6 1 3 1015.1 1014.7 12.4
23/03:30am 11.8 11.8 11.3 97 0.3 NNW 2 6 1 3 1015.2 1014.8 12.0
23/03:00am 11.7 11.7 11.0 95 0.4 NW 2 4 1 2 1015.1 1014.7 11.2
23/02:30am 11.6 12.0 11.2 97 0.2 CALM 0 0 0 0 1015.5 1015.2 11.0
23/02:00am 11.8 12.2 11.3 97 0.3 CALM 0 2 0 1 1015.7 1015.4 11.0
23/01:30am 11.7 11.7 11.3 97 0.2 W 2 4 1 2 1015.8 1015.5 11.0
23/01:00am 11.7 11.7 11.2 97 0.3 W 2 4 1 2 1016.1 1015.7 11.0
23/12:30am 11.7 12.1 11.3 97 0.2 CALM 0 0 0 0 1016.3 1015.9 11.0
23/12:00am 11.8 11.5 11.4 97 0.2 W 4 9 2 5 1016.4 1016.0 11.0
 
Date/Time
EST
Temp
°C
App
Temp
°C
Dew
Point
°C
Rel
Hum
%
Delta-T
°C
Wind Press
QNH
hPa
Press
MSL
hPa
Rain since
9am
mm
Dir  Spd
km/h
Gust
km/h
Spd
kts
Gust
kts
22/11:30pm 12.0 11.1 11.5 97 0.3 W 7 15 4 8 1016.6 1016.3 11.0
22/11:00pm 12.1 11.3 11.6 97 0.3 W 7 13 4 7 1016.8 1016.5 10.6
22/10:30pm 12.1 11.5 11.7 97 0.2 WSW 6 11 3 6 1017.0 1016.7 10.4
22/10:00pm 12.2 11.6 11.8 97 0.2 WSW 6 9 3 5 1016.8 1016.5 9.6
22/09:30pm 12.1 10.5 11.7 97 0.2 SW 11 20 6 11 1016.4 1016.0 7.2
22/09:00pm 12.2 11.5 11.5 95 0.4 W 6 9 3 5 1016.3 1015.9 2.0
22/08:30pm 13.0 11.9 10.8 86 1.2 NNE 7 11 4 6 1016.0 1015.6 0.2
22/08:00pm 13.4 11.6 9.3 76 2.2 NNE 9 17 5 9 1015.6 1015.3 0.0
22/07:30pm 13.5 11.6 9.2 75 2.3 NNE 9 15 5 8 1015.0 1014.6 0.0
22/07:00pm 13.9 11.7 9.2 73 2.5 NNE 11 17 6 9 1014.9 1014.5 0.0
22/06:30pm 14.9 12.2 8.9 67 3.2 NNE 13 24 7 13 1014.6 1014.3 0.0
22/06:00pm 14.7 12.3 8.7 67 3.2 NNE 11 17 6 9 1014.2 1013.8 0.0
22/05:30pm 14.8 12.4 8.8 67 3.2 NNE 11 17 6 9 1014.3 1013.9 0.0
22/05:00pm 15.5 12.7 8.5 63 3.7 NNE 13 19 7 10 1014.5 1014.2 0.0
22/04:30pm 16.1 12.5 8.2 59 4.2 NNE 17 28 9 15 1014.4 1014.0 0.0
22/04:00pm 17.2 13.9 8.0 54 4.9 NE 15 26 8 14 1014.3 1013.9 0.0
22/03:30pm 18.1 14.7 7.8 51 5.5 NNE 15 24 8 13 1014.5 1014.2 0.0
22/03:00pm 17.1 12.9 7.4 53 5.1 NNE 19 30 10 16 1014.9 1014.5 0.0
22/02:30pm 18.2 13.7 6.2 45 6.2 NNE 19 28 10 15 1015.0 1014.6 0.0
22/02:00pm 18.6 14.0 5.5 42 6.7 N 19 32 10 17 1015.4 1015.0 0.0
22/01:30pm 17.4 13.0 6.6 49 5.6 N 19 35 10 19 1015.8 1015.5 0.0
22/01:00pm 17.6 13.5 6.4 47 5.8 NNE 17 30 9 16 1016.0 1015.6 0.0
22/12:30pm 17.3 13.8 7.2 51 5.3 NNE 15 26 8 14 1016.5 1016.2 0.0
22/12:00pm 17.8 13.9 7.3 50 5.5 NNE 17 30 9 16 1017.2 1016.8 0.0
22/11:30am 16.9 12.6 8.0 55 4.7 NNE 20 30 11 16 1017.5 1017.2 0.0
22/11:00am 16.3 12.3 8.4 59 4.2 NNE 19 30 10 16 1017.9 1017.6 0.0
22/10:30am 16.5 12.9 8.4 58 4.3 NNE 17 28 9 15 1018.2 1017.9 0.0
22/10:00am 16.0 13.7 9.1 63 3.7 NNE 11 22 6 12 1018.2 1017.9 0.0
22/09:30am 13.9 10.0 8.6 70 2.8 NNE 19 32 10 17 1018.5 1018.1 0.0
22/09:00am 12.6 10.4 9.4 81 1.7 NE 11 19 6 10 1018.7 1018.4 0.2
22/08:30am 10.6 8.7 8.9 89 0.9 NE 9 17 5 9 1018.8 1018.5 0.2
22/08:00am 8.1 7.6 7.7 97 0.2 CALM 0 2 0 1 1018.9 1018.6 0.2
22/07:30am 7.3 6.3 7.3 100 0.0 NE 2 6 1 3 1018.7 1018.4 0.2
22/07:00am 7.1 5.6 6.9 99 0.1 ENE 4 6 2 3 1018.6 1018.3 0.2
22/06:30am 6.9 5.8 6.7 99 0.1 NE 2 6 1 3 1018.3 1018.0 0.2
22/06:00am 6.7 5.1 6.5 99 0.1 NE 4 11 2 6 1018.2 1017.9 0.2
22/05:30am 6.4 4.4 6.2 99 0.1 ENE 6 9 3 5 1018.1 1017.8 0.2
22/05:00am 6.1 4.4 5.9 99 0.1 NE 4 6 2 3 1018.1 1017.8 0.2
22/04:30am 5.8 4.4 5.6 99 0.1 ENE 2 4 1 2 1018.1 1017.8 0.2
22/04:00am 5.9 4.2 5.7 99 0.1 NE 4 7 2 4 1018.3 1018.0 0.0
22/03:30am 6.0 4.7 6.0 100 0.0 NNE 2 4 1 2 1018.3 1018.0 0.0
22/03:00am 5.7 4.3 5.5 99 0.1 NE 2 4 1 2 1018.6 1018.3 0.0
22/02:30am 3.4 1.6 3.2 99 0.1 ENE 2 7 1 4 1018.5 1018.1 0.0
22/02:00am 3.8 2.4 3.3 97 0.2 CALM 0 0 0 0 1018.7 1018.4 0.0
22/01:30am 3.5 1.7 3.3 99 0.1 NE 2 4 1 2 1019.1 1018.8 0.0
22/01:00am 3.4 1.6 3.4 100 0.0 NE 2 4 1 2 1018.9 1018.6 0.0
22/12:30am 4.5 2.5 4.3 99 0.1 NE 4 4 2 2 1018.9 1018.6 0.0
22/12:00am 4.5 2.4 4.0 97 0.2 NE 4 4 2 2 1019.0 1018.7 0.0
 
Date/Time
EST
Temp
°C
App
Temp
°C
Dew
Point
°C
Rel
Hum
%
Delta-T
°C
Wind Press
QNH
hPa
Press
MSL
hPa
Rain since
9am
mm
Dir  Spd
km/h
Gust
km/h
Spd
kts
Gust
kts
21/11:30pm 5.3 2.9 4.2 93 0.5 NE 6 7 3 4 1019.3 1019.0 0.0
21/11:00pm 5.7 3.3 4.4 91 0.6 NE 6 9 3 5 1019.3 1019.0 0.0
21/10:30pm 6.2 3.8 4.2 87 0.9 ENE 6 7 3 4 1019.5 1019.3 0.0
21/10:00pm 6.2 4.0 3.5 83 1.2 NE 4 7 2 4 1019.9 1019.6 0.0
21/09:30pm 6.7 3.9 2.3 73 1.9 ENE 6 9 3 5 1019.5 1019.3 0.0
21/09:00pm 5.0 2.5 1.4 77 1.5 NE 4 7 2 4 1019.0 1018.7 0.0
21/08:30pm 5.0 2.7 0.6 73 1.8 NE 2 2 1 1 1019.1 1018.8 0.0

Other Formats:

Comma delimited format used in spreadsheet applications
http://www.bom.gov.au/fwo/IDQ60801/IDQ60801.94553.axf

JavaScript Object Notation format (JSON) in row-major order
http://www.bom.gov.au/fwo/IDQ60801/IDQ60801.94553.json